sensor_id;sensor_type;location;lat;lon;timestamp;P1;durP1;ratioP1;P2;durP2;ratioP2
39554;SDS011;25231;48.746;9.234;2022-12-18T00:01:37;67.40;;;36.93;;
39554;SDS011;25231;48.746;9.234;2022-12-18T00:04:04;71.80;;;37.37;;
39554;SDS011;25231;48.746;9.234;2022-12-18T00:06:30;71.57;;;36.90;;
39554;SDS011;25231;48.746;9.234;2022-12-18T00:08:56;71.73;;;37.20;;
39554;SDS011;25231;48.746;9.234;2022-12-18T00:11:24;71.40;;;35.67;;
39554;SDS011;25231;48.746;9.234;2022-12-18T00:13:52;68.93;;;35.13;;
39554;SDS011;25231;48.746;9.234;2022-12-18T00:16:20;70.43;;;37.67;;
39554;SDS011;25231;48.746;9.234;2022-12-18T00:18:47;70.60;;;36.13;;
39554;SDS011;25231;48.746;9.234;2022-12-18T00:21:14;72.43;;;34.77;;
39554;SDS011;25231;48.746;9.234;2022-12-18T00:23:41;71.97;;;36.70;;
39554;SDS011;25231;48.746;9.234;2022-12-18T00:26:10;71.57;;;35.47;;
39554;SDS011;25231;48.746;9.234;2022-12-18T00:28:41;67.70;;;33.60;;
39554;SDS011;25231;48.746;9.234;2022-12-18T00:31:09;66.77;;;34.23;;
39554;SDS011;25231;48.746;9.234;2022-12-18T00:33:36;69.00;;;34.33;;
39554;SDS011;25231;48.746;9.234;2022-12-18T00:36:03;69.80;;;34.33;;
39554;SDS011;25231;48.746;9.234;2022-12-18T00:38:30;73.00;;;35.33;;
39554;SDS011;25231;48.746;9.234;2022-12-18T00:40:55;70.53;;;34.80;;
39554;SDS011;25231;48.746;9.234;2022-12-18T00:43:21;75.03;;;35.60;;
39554;SDS011;25231;48.746;9.234;2022-12-18T00:45:46;71.57;;;35.00;;
39554;SDS011;25231;48.746;9.234;2022-12-18T00:48:11;61.73;;;32.20;;
39554;SDS011;25231;48.746;9.234;2022-12-18T00:50:37;81.23;;;34.10;;
39554;SDS011;25231;48.746;9.234;2022-12-18T00:53:03;67.37;;;33.10;;
39554;SDS011;25231;48.746;9.234;2022-12-18T00:55:28;72.37;;;33.23;;
39554;SDS011;25231;48.746;9.234;2022-12-18T00:57:54;74.50;;;34.80;;
39554;SDS011;25231;48.746;9.234;2022-12-18T01:00:19;73.77;;;35.63;;
39554;SDS011;25231;48.746;9.234;2022-12-18T01:02:45;71.20;;;35.17;;
39554;SDS011;25231;48.746;9.234;2022-12-18T01:05:12;71.77;;;35.63;;
39554;SDS011;25231;48.746;9.234;2022-12-18T01:07:38;69.63;;;34.13;;
39554;SDS011;25231;48.746;9.234;2022-12-18T01:10:05;66.87;;;32.97;;
39554;SDS011;25231;48.746;9.234;2022-12-18T01:12:31;65.57;;;31.93;;
39554;SDS011;25231;48.746;9.234;2022-12-18T01:14:57;58.73;;;30.90;;
39554;SDS011;25231;48.746;9.234;2022-12-18T01:17:22;55.80;;;31.90;;
39554;SDS011;25231;48.746;9.234;2022-12-18T01:19:48;60.83;;;29.90;;
39554;SDS011;25231;48.746;9.234;2022-12-18T01:22:13;64.90;;;32.57;;
39554;SDS011;25231;48.746;9.234;2022-12-18T01:24:39;60.13;;;33.07;;
39554;SDS011;25231;48.746;9.234;2022-12-18T01:27:04;59.20;;;31.37;;
39554;SDS011;25231;48.746;9.234;2022-12-18T01:29:30;55.40;;;31.83;;
39554;SDS011;25231;48.746;9.234;2022-12-18T01:31:55;62.03;;;33.70;;
39554;SDS011;25231;48.746;9.234;2022-12-18T01:34:22;63.43;;;32.77;;
39554;SDS011;25231;48.746;9.234;2022-12-18T01:36:48;62.97;;;33.17;;
39554;SDS011;25231;48.746;9.234;2022-12-18T01:39:14;62.90;;;32.33;;
39554;SDS011;25231;48.746;9.234;2022-12-18T01:41:40;60.97;;;34.13;;
39554;SDS011;25231;48.746;9.234;2022-12-18T01:47:20;62.50;;;31.33;;
39554;SDS011;25231;48.746;9.234;2022-12-18T01:49:46;67.77;;;32.60;;
39554;SDS011;25231;48.746;9.234;2022-12-18T01:52:13;66.43;;;32.93;;
39554;SDS011;25231;48.746;9.234;2022-12-18T01:54:39;65.07;;;32.87;;
39554;SDS011;25231;48.746;9.234;2022-12-18T01:57:04;59.37;;;30.80;;
39554;SDS011;25231;48.746;9.234;2022-12-18T01:59:30;60.43;;;31.63;;
39554;SDS011;25231;48.746;9.234;2022-12-18T02:01:57;62.90;;;31.23;;
39554;SDS011;25231;48.746;9.234;2022-12-18T02:04:25;64.53;;;29.47;;
39554;SDS011;25231;48.746;9.234;2022-12-18T02:07:11;61.50;;;30.63;;
39554;SDS011;25231;48.746;9.234;2022-12-18T02:10:02;57.50;;;30.20;;
39554;SDS011;25231;48.746;9.234;2022-12-18T02:12:42;51.27;;;28.53;;
39554;SDS011;25231;48.746;9.234;2022-12-18T02:15:34;58.00;;;28.47;;
39554;SDS011;25231;48.746;9.234;2022-12-18T02:18:06;56.10;;;29.00;;
39554;SDS011;25231;48.746;9.234;2022-12-18T02:23:42;66.23;;;30.00;;
39554;SDS011;25231;48.746;9.234;2022-12-18T02:29:01;58.50;;;29.90;;
39554;SDS011;25231;48.746;9.234;2022-12-18T02:31:35;57.60;;;28.77;;
39554;SDS011;25231;48.746;9.234;2022-12-18T02:34:05;52.13;;;27.33;;
39554;SDS011;25231;48.746;9.234;2022-12-18T02:36:33;55.13;;;29.37;;
39554;SDS011;25231;48.746;9.234;2022-12-18T02:39:02;52.50;;;27.77;;
39554;SDS011;25231;48.746;9.234;2022-12-18T02:41:30;54.97;;;27.43;;
39554;SDS011;25231;48.746;9.234;2022-12-18T02:43:58;53.63;;;26.63;;
39554;SDS011;25231;48.746;9.234;2022-12-18T02:46:34;49.00;;;27.17;;
39554;SDS011;25231;48.746;9.234;2022-12-18T02:49:16;53.40;;;27.77;;
39554;SDS011;25231;48.746;9.234;2022-12-18T02:54:41;54.57;;;27.50;;
39554;SDS011;25231;48.746;9.234;2022-12-18T02:57:37;51.03;;;27.93;;
39554;SDS011;25231;48.746;9.234;2022-12-18T03:00:14;49.10;;;27.53;;
39554;SDS011;25231;48.746;9.234;2022-12-18T03:05:42;43.97;;;26.43;;
39554;SDS011;25231;48.746;9.234;2022-12-18T03:08:16;46.40;;;26.97;;
39554;SDS011;25231;48.746;9.234;2022-12-18T03:10:49;52.60;;;27.07;;
39554;SDS011;25231;48.746;9.234;2022-12-18T03:13:26;47.43;;;26.13;;
39554;SDS011;25231;48.746;9.234;2022-12-18T03:15:56;45.23;;;26.33;;
39554;SDS011;25231;48.746;9.234;2022-12-18T03:18:38;43.93;;;26.30;;
39554;SDS011;25231;48.746;9.234;2022-12-18T03:21:10;50.03;;;27.60;;
39554;SDS011;25231;48.746;9.234;2022-12-18T03:23:43;46.03;;;26.10;;
39554;SDS011;25231;48.746;9.234;2022-12-18T03:26:12;46.87;;;26.13;;
39554;SDS011;25231;48.746;9.234;2022-12-18T03:29:03;47.53;;;26.70;;
39554;SDS011;25231;48.746;9.234;2022-12-18T03:31:31;45.07;;;25.67;;
39554;SDS011;25231;48.746;9.234;2022-12-18T03:34:03;49.70;;;26.40;;
39554;SDS011;25231;48.746;9.234;2022-12-18T03:36:34;51.80;;;26.80;;
39554;SDS011;25231;48.746;9.234;2022-12-18T03:38:59;47.30;;;26.37;;
39554;SDS011;25231;48.746;9.234;2022-12-18T03:41:30;41.33;;;23.07;;
39554;SDS011;25231;48.746;9.234;2022-12-18T03:49:58;49.47;;;25.77;;
39554;SDS011;25231;48.746;9.234;2022-12-18T03:52:36;49.03;;;25.60;;
39554;SDS011;25231;48.746;9.234;2022-12-18T03:55:11;44.30;;;24.80;;
39554;SDS011;25231;48.746;9.234;2022-12-18T03:57:37;49.83;;;25.57;;
39554;SDS011;25231;48.746;9.234;2022-12-18T04:00:05;50.87;;;26.57;;
39554;SDS011;25231;48.746;9.234;2022-12-18T04:02:36;50.63;;;25.97;;
39554;SDS011;25231;48.746;9.234;2022-12-18T04:05:06;43.93;;;25.90;;
39554;SDS011;25231;48.746;9.234;2022-12-18T04:07:34;52.83;;;26.50;;
39554;SDS011;25231;48.746;9.234;2022-12-18T04:10:01;48.07;;;26.20;;
39554;SDS011;25231;48.746;9.234;2022-12-18T04:12:29;53.30;;;28.73;;
39554;SDS011;25231;48.746;9.234;2022-12-18T04:14:54;53.33;;;28.37;;
39554;SDS011;25231;48.746;9.234;2022-12-18T04:17:20;56.07;;;26.87;;
39554;SDS011;25231;48.746;9.234;2022-12-18T04:19:46;49.53;;;26.43;;
39554;SDS011;25231;48.746;9.234;2022-12-18T04:22:12;49.63;;;26.83;;
39554;SDS011;25231;48.746;9.234;2022-12-18T04:24:37;54.33;;;28.03;;
39554;SDS011;25231;48.746;9.234;2022-12-18T04:27:03;56.53;;;27.90;;
39554;SDS011;25231;48.746;9.234;2022-12-18T04:29:29;53.60;;;27.30;;
39554;SDS011;25231;48.746;9.234;2022-12-18T04:31:54;48.27;;;25.90;;
39554;SDS011;25231;48.746;9.234;2022-12-18T04:34:20;53.87;;;27.77;;
39554;SDS011;25231;48.746;9.234;2022-12-18T04:36:46;49.17;;;26.50;;
39554;SDS011;25231;48.746;9.234;2022-12-18T04:39:11;51.13;;;27.40;;
39554;SDS011;25231;48.746;9.234;2022-12-18T04:41:37;53.17;;;27.90;;
39554;SDS011;25231;48.746;9.234;2022-12-18T04:44:02;54.37;;;26.23;;
39554;SDS011;25231;48.746;9.234;2022-12-18T04:46:28;55.27;;;27.40;;
39554;SDS011;25231;48.746;9.234;2022-12-18T04:48:53;49.33;;;26.13;;
39554;SDS011;25231;48.746;9.234;2022-12-18T04:51:19;53.07;;;26.37;;
39554;SDS011;25231;48.746;9.234;2022-12-18T04:53:44;54.13;;;26.10;;
39554;SDS011;25231;48.746;9.234;2022-12-18T04:56:11;46.90;;;24.43;;
39554;SDS011;25231;48.746;9.234;2022-12-18T04:58:38;53.03;;;26.80;;
39554;SDS011;25231;48.746;9.234;2022-12-18T05:01:05;48.90;;;25.77;;
39554;SDS011;25231;48.746;9.234;2022-12-18T05:03:32;48.57;;;24.73;;
39554;SDS011;25231;48.746;9.234;2022-12-18T05:05:58;47.67;;;24.67;;
39554;SDS011;25231;48.746;9.234;2022-12-18T05:08:23;42.67;;;24.27;;
39554;SDS011;25231;48.746;9.234;2022-12-18T05:10:49;42.00;;;23.67;;
39554;SDS011;25231;48.746;9.234;2022-12-18T05:13:14;46.73;;;24.27;;
39554;SDS011;25231;48.746;9.234;2022-12-18T05:15:40;48.50;;;24.37;;
39554;SDS011;25231;48.746;9.234;2022-12-18T05:18:06;41.23;;;23.23;;
39554;SDS011;25231;48.746;9.234;2022-12-18T05:20:32;46.17;;;22.37;;
39554;SDS011;25231;48.746;9.234;2022-12-18T05:22:58;40.90;;;22.87;;
39554;SDS011;25231;48.746;9.234;2022-12-18T05:25:24;43.60;;;23.93;;
39554;SDS011;25231;48.746;9.234;2022-12-18T05:27:49;39.77;;;21.60;;
39554;SDS011;25231;48.746;9.234;2022-12-18T05:30:15;40.43;;;23.03;;
39554;SDS011;25231;48.746;9.234;2022-12-18T05:32:41;35.97;;;21.50;;
39554;SDS011;25231;48.746;9.234;2022-12-18T05:35:07;43.10;;;24.00;;
39554;SDS011;25231;48.746;9.234;2022-12-18T05:37:33;45.93;;;24.17;;
39554;SDS011;25231;48.746;9.234;2022-12-18T05:39:59;40.70;;;22.27;;
39554;SDS011;25231;48.746;9.234;2022-12-18T05:42:25;43.17;;;22.83;;
39554;SDS011;25231;48.746;9.234;2022-12-18T05:44:50;38.57;;;22.47;;
39554;SDS011;25231;48.746;9.234;2022-12-18T05:47:16;49.37;;;24.07;;
39554;SDS011;25231;48.746;9.234;2022-12-18T05:49:41;49.20;;;22.70;;
39554;SDS011;25231;48.746;9.234;2022-12-18T05:52:07;47.50;;;22.83;;
39554;SDS011;25231;48.746;9.234;2022-12-18T05:54:32;44.30;;;23.90;;
39554;SDS011;25231;48.746;9.234;2022-12-18T05:56:58;44.30;;;23.63;;
39554;SDS011;25231;48.746;9.234;2022-12-18T05:59:23;48.53;;;24.30;;
39554;SDS011;25231;48.746;9.234;2022-12-18T06:01:49;52.13;;;23.37;;
39554;SDS011;25231;48.746;9.234;2022-12-18T06:04:14;43.47;;;22.93;;
39554;SDS011;25231;48.746;9.234;2022-12-18T06:06:40;40.60;;;23.37;;
39554;SDS011;25231;48.746;9.234;2022-12-18T06:09:05;39.40;;;22.67;;
39554;SDS011;25231;48.746;9.234;2022-12-18T06:11:35;42.37;;;22.47;;
39554;SDS011;25231;48.746;9.234;2022-12-18T06:14:02;41.33;;;22.97;;
39554;SDS011;25231;48.746;9.234;2022-12-18T06:16:29;40.87;;;22.00;;
39554;SDS011;25231;48.746;9.234;2022-12-18T06:18:56;44.60;;;24.07;;
39554;SDS011;25231;48.746;9.234;2022-12-18T06:21:22;41.83;;;23.63;;
39554;SDS011;25231;48.746;9.234;2022-12-18T06:23:48;40.00;;;22.40;;
39554;SDS011;25231;48.746;9.234;2022-12-18T06:26:13;43.33;;;23.77;;
39554;SDS011;25231;48.746;9.234;2022-12-18T06:28:39;39.80;;;23.00;;
39554;SDS011;25231;48.746;9.234;2022-12-18T06:31:05;43.23;;;23.23;;
39554;SDS011;25231;48.746;9.234;2022-12-18T06:33:32;43.17;;;23.37;;
39554;SDS011;25231;48.746;9.234;2022-12-18T06:36:01;42.73;;;23.17;;
39554;SDS011;25231;48.746;9.234;2022-12-18T06:38:27;48.73;;;24.70;;
39554;SDS011;25231;48.746;9.234;2022-12-18T06:40:52;38.50;;;22.77;;
39554;SDS011;25231;48.746;9.234;2022-12-18T06:43:18;39.63;;;23.07;;
39554;SDS011;25231;48.746;9.234;2022-12-18T06:45:43;40.77;;;23.53;;
39554;SDS011;25231;48.746;9.234;2022-12-18T06:48:08;35.03;;;21.07;;
39554;SDS011;25231;48.746;9.234;2022-12-18T06:50:34;38.63;;;22.83;;
39554;SDS011;25231;48.746;9.234;2022-12-18T06:52:59;47.20;;;23.67;;
39554;SDS011;25231;48.746;9.234;2022-12-18T06:55:25;41.40;;;23.00;;
39554;SDS011;25231;48.746;9.234;2022-12-18T06:57:50;37.60;;;21.97;;
39554;SDS011;25231;48.746;9.234;2022-12-18T07:00:16;44.20;;;22.87;;
39554;SDS011;25231;48.746;9.234;2022-12-18T07:02:42;42.47;;;24.33;;
39554;SDS011;25231;48.746;9.234;2022-12-18T07:05:07;38.17;;;22.90;;
39554;SDS011;25231;48.746;9.234;2022-12-18T07:07:34;39.97;;;22.90;;
39554;SDS011;25231;48.746;9.234;2022-12-18T07:10:01;36.47;;;21.97;;
39554;SDS011;25231;48.746;9.234;2022-12-18T07:12:27;42.40;;;22.57;;
39554;SDS011;25231;48.746;9.234;2022-12-18T07:14:54;42.90;;;22.47;;
39554;SDS011;25231;48.746;9.234;2022-12-18T07:17:20;43.30;;;24.70;;
39554;SDS011;25231;48.746;9.234;2022-12-18T07:19:46;42.50;;;24.73;;
39554;SDS011;25231;48.746;9.234;2022-12-18T07:22:11;44.13;;;25.10;;
39554;SDS011;25231;48.746;9.234;2022-12-18T07:24:37;43.33;;;25.13;;
39554;SDS011;25231;48.746;9.234;2022-12-18T07:27:02;41.33;;;23.00;;
39554;SDS011;25231;48.746;9.234;2022-12-18T07:29:28;40.77;;;23.97;;
39554;SDS011;25231;48.746;9.234;2022-12-18T07:31:53;40.33;;;22.33;;
39554;SDS011;25231;48.746;9.234;2022-12-18T07:34:19;44.03;;;24.23;;
39554;SDS011;25231;48.746;9.234;2022-12-18T07:36:44;43.53;;;24.33;;
39554;SDS011;25231;48.746;9.234;2022-12-18T07:39:10;48.67;;;24.13;;
39554;SDS011;25231;48.746;9.234;2022-12-18T07:41:36;41.33;;;23.37;;
39554;SDS011;25231;48.746;9.234;2022-12-18T07:44:02;43.17;;;23.43;;
39554;SDS011;25231;48.746;9.234;2022-12-18T07:46:27;46.47;;;23.37;;
39554;SDS011;25231;48.746;9.234;2022-12-18T07:48:52;44.47;;;24.90;;
39554;SDS011;25231;48.746;9.234;2022-12-18T07:51:18;39.80;;;24.13;;
39554;SDS011;25231;48.746;9.234;2022-12-18T07:53:44;44.40;;;24.60;;
39554;SDS011;25231;48.746;9.234;2022-12-18T07:56:11;41.30;;;23.27;;
39554;SDS011;25231;48.746;9.234;2022-12-18T07:58:37;41.50;;;22.90;;
39554;SDS011;25231;48.746;9.234;2022-12-18T08:01:06;42.00;;;22.93;;
39554;SDS011;25231;48.746;9.234;2022-12-18T08:03:36;39.03;;;24.57;;
39554;SDS011;25231;48.746;9.234;2022-12-18T08:06:03;44.30;;;24.53;;
39554;SDS011;25231;48.746;9.234;2022-12-18T08:08:31;40.57;;;22.60;;
39554;SDS011;25231;48.746;9.234;2022-12-18T08:10:58;43.90;;;23.87;;
39554;SDS011;25231;48.746;9.234;2022-12-18T08:13:23;44.93;;;25.40;;
39554;SDS011;25231;48.746;9.234;2022-12-18T08:16:02;42.40;;;24.93;;
39554;SDS011;25231;48.746;9.234;2022-12-18T08:18:31;45.17;;;26.63;;
39554;SDS011;25231;48.746;9.234;2022-12-18T08:20:57;43.47;;;28.90;;
39554;SDS011;25231;48.746;9.234;2022-12-18T08:23:23;45.00;;;27.93;;
39554;SDS011;25231;48.746;9.234;2022-12-18T08:25:48;49.90;;;27.70;;
39554;SDS011;25231;48.746;9.234;2022-12-18T08:28:14;43.47;;;27.30;;
39554;SDS011;25231;48.746;9.234;2022-12-18T08:30:43;47.47;;;25.70;;
39554;SDS011;25231;48.746;9.234;2022-12-18T08:33:08;44.33;;;24.73;;
39554;SDS011;25231;48.746;9.234;2022-12-18T08:35:37;41.67;;;24.53;;
39554;SDS011;25231;48.746;9.234;2022-12-18T08:38:02;41.47;;;24.67;;
39554;SDS011;25231;48.746;9.234;2022-12-18T08:40:28;42.97;;;24.93;;
39554;SDS011;25231;48.746;9.234;2022-12-18T08:42:54;45.90;;;24.43;;
39554;SDS011;25231;48.746;9.234;2022-12-18T08:45:38;42.20;;;24.90;;
39554;SDS011;25231;48.746;9.234;2022-12-18T08:48:03;40.83;;;22.53;;
39554;SDS011;25231;48.746;9.234;2022-12-18T08:50:29;39.53;;;23.07;;
39554;SDS011;25231;48.746;9.234;2022-12-18T08:52:54;39.10;;;22.80;;
39554;SDS011;25231;48.746;9.234;2022-12-18T08:55:19;40.30;;;23.47;;
39554;SDS011;25231;48.746;9.234;2022-12-18T08:57:47;42.50;;;23.20;;
39554;SDS011;25231;48.746;9.234;2022-12-18T09:00:14;39.43;;;22.87;;
39554;SDS011;25231;48.746;9.234;2022-12-18T09:02:40;40.87;;;22.27;;
39554;SDS011;25231;48.746;9.234;2022-12-18T09:05:05;44.07;;;24.33;;
39554;SDS011;25231;48.746;9.234;2022-12-18T09:07:31;37.53;;;22.30;;
39554;SDS011;25231;48.746;9.234;2022-12-18T09:09:56;40.43;;;24.23;;
39554;SDS011;25231;48.746;9.234;2022-12-18T09:12:22;41.13;;;24.10;;
39554;SDS011;25231;48.746;9.234;2022-12-18T09:14:47;40.97;;;24.10;;
39554;SDS011;25231;48.746;9.234;2022-12-18T09:17:13;40.67;;;23.67;;
39554;SDS011;25231;48.746;9.234;2022-12-18T09:19:38;46.27;;;24.10;;
39554;SDS011;25231;48.746;9.234;2022-12-18T09:22:03;41.53;;;24.37;;
39554;SDS011;25231;48.746;9.234;2022-12-18T09:24:29;40.63;;;23.83;;
39554;SDS011;25231;48.746;9.234;2022-12-18T09:26:54;44.57;;;25.50;;
39554;SDS011;25231;48.746;9.234;2022-12-18T09:29:20;38.50;;;23.93;;
39554;SDS011;25231;48.746;9.234;2022-12-18T09:31:46;38.67;;;24.13;;
39554;SDS011;25231;48.746;9.234;2022-12-18T09:34:12;41.57;;;23.57;;
39554;SDS011;25231;48.746;9.234;2022-12-18T09:36:37;40.10;;;23.40;;
39554;SDS011;25231;48.746;9.234;2022-12-18T09:39:03;43.60;;;25.07;;
39554;SDS011;25231;48.746;9.234;2022-12-18T09:41:50;43.23;;;23.73;;
39554;SDS011;25231;48.746;9.234;2022-12-18T09:44:32;36.30;;;21.43;;
39554;SDS011;25231;48.746;9.234;2022-12-18T09:47:15;41.07;;;23.17;;
39554;SDS011;25231;48.746;9.234;2022-12-18T09:49:53;41.67;;;24.03;;
39554;SDS011;25231;48.746;9.234;2022-12-18T09:52:43;41.80;;;24.73;;
39554;SDS011;25231;48.746;9.234;2022-12-18T09:55:30;42.63;;;22.97;;
39554;SDS011;25231;48.746;9.234;2022-12-18T09:58:04;41.80;;;23.83;;
39554;SDS011;25231;48.746;9.234;2022-12-18T10:00:52;38.30;;;22.80;;
39554;SDS011;25231;48.746;9.234;2022-12-18T10:03:18;43.23;;;24.47;;
39554;SDS011;25231;48.746;9.234;2022-12-18T10:08:36;37.83;;;22.43;;
39554;SDS011;25231;48.746;9.234;2022-12-18T10:11:39;41.60;;;24.23;;
39554;SDS011;25231;48.746;9.234;2022-12-18T10:17:38;37.10;;;23.00;;
39554;SDS011;25231;48.746;9.234;2022-12-18T10:20:38;45.83;;;25.40;;
39554;SDS011;25231;48.746;9.234;2022-12-18T10:23:14;39.07;;;23.70;;
39554;SDS011;25231;48.746;9.234;2022-12-18T10:25:53;42.13;;;25.87;;
39554;SDS011;25231;48.746;9.234;2022-12-18T10:28:26;40.03;;;24.07;;
39554;SDS011;25231;48.746;9.234;2022-12-18T10:30:54;42.70;;;24.60;;
39554;SDS011;25231;48.746;9.234;2022-12-18T10:33:20;41.70;;;23.87;;
39554;SDS011;25231;48.746;9.234;2022-12-18T10:35:48;39.20;;;24.13;;
39554;SDS011;25231;48.746;9.234;2022-12-18T10:48:33;42.90;;;24.30;;
39554;SDS011;25231;48.746;9.234;2022-12-18T10:51:01;43.40;;;26.87;;
39554;SDS011;25231;48.746;9.234;2022-12-18T10:53:28;42.37;;;23.17;;
39554;SDS011;25231;48.746;9.234;2022-12-18T10:55:57;40.23;;;23.93;;
39554;SDS011;25231;48.746;9.234;2022-12-18T10:58:28;42.63;;;24.57;;
39554;SDS011;25231;48.746;9.234;2022-12-18T11:01:03;44.03;;;25.73;;
39554;SDS011;25231;48.746;9.234;2022-12-18T11:03:33;47.57;;;24.87;;
39554;SDS011;25231;48.746;9.234;2022-12-18T11:06:02;44.30;;;23.87;;
39554;SDS011;25231;48.746;9.234;2022-12-18T11:08:33;42.10;;;22.57;;
39554;SDS011;25231;48.746;9.234;2022-12-18T11:10:58;38.47;;;21.67;;
39554;SDS011;25231;48.746;9.234;2022-12-18T11:13:26;41.60;;;22.73;;
39554;SDS011;25231;48.746;9.234;2022-12-18T11:15:53;36.83;;;22.17;;
39554;SDS011;25231;48.746;9.234;2022-12-18T11:20:56;36.80;;;22.27;;
39554;SDS011;25231;48.746;9.234;2022-12-18T11:23:24;38.33;;;22.30;;
39554;SDS011;25231;48.746;9.234;2022-12-18T11:25:52;38.57;;;22.40;;
39554;SDS011;25231;48.746;9.234;2022-12-18T11:28:27;41.67;;;21.67;;
39554;SDS011;25231;48.746;9.234;2022-12-18T11:33:43;36.73;;;21.97;;
39554;SDS011;25231;48.746;9.234;2022-12-18T11:36:24;35.33;;;20.50;;
39554;SDS011;25231;48.746;9.234;2022-12-18T11:38:54;38.63;;;21.67;;
39554;SDS011;25231;48.746;9.234;2022-12-18T11:43:52;36.13;;;22.50;;
39554;SDS011;25231;48.746;9.234;2022-12-18T11:46:32;42.83;;;22.57;;
39554;SDS011;25231;48.746;9.234;2022-12-18T11:51:51;38.10;;;21.47;;
39554;SDS011;25231;48.746;9.234;2022-12-18T11:54:36;47.13;;;24.77;;
39554;SDS011;25231;48.746;9.234;2022-12-18T11:59:58;39.00;;;22.23;;
39554;SDS011;25231;48.746;9.234;2022-12-18T12:03:00;41.77;;;24.57;;
39554;SDS011;25231;48.746;9.234;2022-12-18T12:05:44;40.40;;;22.53;;
39554;SDS011;25231;48.746;9.234;2022-12-18T12:08:40;39.67;;;23.37;;
39554;SDS011;25231;48.746;9.234;2022-12-18T12:16:49;41.97;;;24.00;;
39554;SDS011;25231;48.746;9.234;2022-12-18T12:30:16;42.67;;;24.87;;
39554;SDS011;25231;48.746;9.234;2022-12-18T12:35:55;44.90;;;24.37;;
39554;SDS011;25231;48.746;9.234;2022-12-18T12:38:35;46.27;;;25.23;;
39554;SDS011;25231;48.746;9.234;2022-12-18T12:41:09;42.80;;;24.10;;
39554;SDS011;25231;48.746;9.234;2022-12-18T12:44:01;43.37;;;24.50;;
39554;SDS011;25231;48.746;9.234;2022-12-18T12:46:32;42.73;;;24.53;;
39554;SDS011;25231;48.746;9.234;2022-12-18T12:49:02;44.33;;;23.90;;
39554;SDS011;25231;48.746;9.234;2022-12-18T12:51:38;49.23;;;24.00;;
39554;SDS011;25231;48.746;9.234;2022-12-18T12:54:10;42.27;;;23.97;;
39554;SDS011;25231;48.746;9.234;2022-12-18T13:02:48;40.20;;;23.10;;
39554;SDS011;25231;48.746;9.234;2022-12-18T13:10:41;39.57;;;24.00;;
39554;SDS011;25231;48.746;9.234;2022-12-18T13:20:43;43.57;;;25.47;;
39554;SDS011;25231;48.746;9.234;2022-12-18T13:25:56;47.70;;;25.63;;
39554;SDS011;25231;48.746;9.234;2022-12-18T13:31:15;44.43;;;23.20;;
39554;SDS011;25231;48.746;9.234;2022-12-18T13:34:18;39.10;;;23.03;;
39554;SDS011;25231;48.746;9.234;2022-12-18T13:36:46;41.33;;;23.83;;
39554;SDS011;25231;48.746;9.234;2022-12-18T13:41:53;41.60;;;24.97;;
39554;SDS011;25231;48.746;9.234;2022-12-18T13:44:59;42.73;;;23.73;;
39554;SDS011;25231;48.746;9.234;2022-12-18T13:49:57;41.97;;;24.17;;
39554;SDS011;25231;48.746;9.234;2022-12-18T13:54:50;45.53;;;25.57;;
39554;SDS011;25231;48.746;9.234;2022-12-18T13:57:37;41.53;;;23.37;;
39554;SDS011;25231;48.746;9.234;2022-12-18T14:02:49;44.00;;;24.43;;
39554;SDS011;25231;48.746;9.234;2022-12-18T14:05:27;49.17;;;25.87;;
39554;SDS011;25231;48.746;9.234;2022-12-18T14:08:08;45.33;;;25.20;;
39554;SDS011;25231;48.746;9.234;2022-12-18T14:10:44;43.70;;;24.57;;
39554;SDS011;25231;48.746;9.234;2022-12-18T14:13:15;44.83;;;26.07;;
39554;SDS011;25231;48.746;9.234;2022-12-18T14:15:46;50.67;;;27.37;;
39554;SDS011;25231;48.746;9.234;2022-12-18T14:20:56;44.90;;;30.07;;
39554;SDS011;25231;48.746;9.234;2022-12-18T14:23:40;49.20;;;26.80;;
39554;SDS011;25231;48.746;9.234;2022-12-18T14:26:26;50.57;;;26.57;;
39554;SDS011;25231;48.746;9.234;2022-12-18T14:28:57;51.10;;;27.30;;
39554;SDS011;25231;48.746;9.234;2022-12-18T14:31:26;44.03;;;24.27;;
39554;SDS011;25231;48.746;9.234;2022-12-18T14:33:53;49.30;;;26.27;;
39554;SDS011;25231;48.746;9.234;2022-12-18T14:36:27;50.17;;;27.43;;
39554;SDS011;25231;48.746;9.234;2022-12-18T14:38:53;46.37;;;25.87;;
39554;SDS011;25231;48.746;9.234;2022-12-18T14:41:21;46.57;;;26.17;;
39554;SDS011;25231;48.746;9.234;2022-12-18T14:43:48;50.47;;;27.10;;
39554;SDS011;25231;48.746;9.234;2022-12-18T14:51:47;51.70;;;26.53;;
39554;SDS011;25231;48.746;9.234;2022-12-18T14:54:15;51.97;;;27.27;;
39554;SDS011;25231;48.746;9.234;2022-12-18T14:56:44;51.07;;;25.87;;
39554;SDS011;25231;48.746;9.234;2022-12-18T14:59:25;48.33;;;27.10;;
39554;SDS011;25231;48.746;9.234;2022-12-18T15:01:59;52.47;;;26.77;;
39554;SDS011;25231;48.746;9.234;2022-12-18T15:04:36;47.50;;;26.97;;
39554;SDS011;25231;48.746;9.234;2022-12-18T15:07:17;51.00;;;27.70;;
39554;SDS011;25231;48.746;9.234;2022-12-18T15:10:09;49.03;;;26.70;;
39554;SDS011;25231;48.746;9.234;2022-12-18T15:12:41;57.73;;;28.97;;
39554;SDS011;25231;48.746;9.234;2022-12-18T15:20:45;53.53;;;29.47;;
39554;SDS011;25231;48.746;9.234;2022-12-18T15:23:19;55.10;;;27.37;;
39554;SDS011;25231;48.746;9.234;2022-12-18T15:25:46;57.07;;;29.20;;
39554;SDS011;25231;48.746;9.234;2022-12-18T15:28:21;53.10;;;29.53;;
39554;SDS011;25231;48.746;9.234;2022-12-18T15:33:35;55.97;;;31.17;;
39554;SDS011;25231;48.746;9.234;2022-12-18T15:36:03;56.23;;;30.10;;
39554;SDS011;25231;48.746;9.234;2022-12-18T15:38:33;61.37;;;31.27;;
39554;SDS011;25231;48.746;9.234;2022-12-18T15:40:59;54.20;;;30.10;;
39554;SDS011;25231;48.746;9.234;2022-12-18T15:43:25;54.73;;;31.10;;
39554;SDS011;25231;48.746;9.234;2022-12-18T15:46:01;59.13;;;30.00;;
39554;SDS011;25231;48.746;9.234;2022-12-18T15:48:44;54.40;;;28.33;;
39554;SDS011;25231;48.746;9.234;2022-12-18T15:53:50;54.73;;;30.23;;
39554;SDS011;25231;48.746;9.234;2022-12-18T15:56:19;56.07;;;30.80;;
39554;SDS011;25231;48.746;9.234;2022-12-18T15:59:07;58.33;;;31.07;;
39554;SDS011;25231;48.746;9.234;2022-12-18T16:01:36;61.07;;;30.60;;
39554;SDS011;25231;48.746;9.234;2022-12-18T16:04:02;58.27;;;30.67;;
39554;SDS011;25231;48.746;9.234;2022-12-18T16:06:27;59.20;;;31.87;;
39554;SDS011;25231;48.746;9.234;2022-12-18T16:08:53;54.50;;;29.63;;
39554;SDS011;25231;48.746;9.234;2022-12-18T16:14:03;56.00;;;28.50;;
39554;SDS011;25231;48.746;9.234;2022-12-18T16:16:51;52.53;;;28.97;;
39554;SDS011;25231;48.746;9.234;2022-12-18T16:19:18;58.17;;;31.07;;
39554;SDS011;25231;48.746;9.234;2022-12-18T16:21:45;56.43;;;31.47;;
39554;SDS011;25231;48.746;9.234;2022-12-18T16:24:15;68.87;;;31.43;;
39554;SDS011;25231;48.746;9.234;2022-12-18T16:26:47;63.63;;;31.77;;
39554;SDS011;25231;48.746;9.234;2022-12-18T16:29:12;62.30;;;31.93;;
39554;SDS011;25231;48.746;9.234;2022-12-18T16:31:38;58.93;;;32.70;;
39554;SDS011;25231;48.746;9.234;2022-12-18T16:34:13;61.00;;;31.00;;
39554;SDS011;25231;48.746;9.234;2022-12-18T16:36:48;57.83;;;31.23;;
39554;SDS011;25231;48.746;9.234;2022-12-18T16:39:18;57.57;;;30.13;;
39554;SDS011;25231;48.746;9.234;2022-12-18T16:41:44;62.47;;;31.67;;
39554;SDS011;25231;48.746;9.234;2022-12-18T16:44:09;59.03;;;31.30;;